Time;durP1;ratioP1;P1;durP2;ratioP2;P2;SDS_P1;SDS_P2;PMS_P1;PMS_P2;Temp;Humidity;BMP_temperature;BMP_pressure;BME280_temperature;BME280_humidity;BME280_pressure;Samples;Min_cycle;Max_cycle;Signal;HPM_P1;HPM_P2
2021/05/11 00:01:45;;;;;;;34.13;15.73;;;;;;;31.65;58.83;100762.88;5061706;28;65534;-38
2021/05/11 00:04:16;;;;;;;50.08;25.23;;;;;;;31.67;59.03;100768.91;5041213;28;69974;-39
2021/05/11 00:06:46;;;;;;;37.00;20.75;;;;;;;31.79;58.88;100770.63;5057462;28;65066;-39
2021/05/11 00:09:17;;;;;;;28.17;15.65;;;;;;;31.81;59.48;100778.50;5057996;27;70592;-38
2021/05/11 00:11:47;;;;;;;25.40;13.82;;;;;;;31.87;59.25;100783.00;5062788;27;67494;-38
2021/05/11 00:14:17;;;;;;;36.83;12.07;;;;;;;31.82;59.95;100772.88;5054127;28;69360;-38
2021/05/11 00:16:47;;;;;;;19.52;9.75;;;;;;;31.94;60.07;100788.41;5052593;28;66004;-38
2021/05/11 00:19:18;;;;;;;26.90;9.73;;;;;;;31.98;59.54;100793.16;5055479;28;69949;-38
2021/05/11 00:21:47;;;;;;;20.48;9.70;;;;;;;31.91;59.48;100784.25;5054594;28;66446;-38
2021/05/11 00:24:18;;;;;;;16.88;9.07;;;;;;;31.99;58.97;100797.50;5055893;28;69145;-38
2021/05/11 00:26:47;;;;;;;15.68;8.65;;;;;;;31.97;59.34;100793.34;5060593;28;65439;-39
2021/05/11 00:29:19;;;;;;;17.53;8.93;;;;;;;31.97;58.74;100806.94;5054921;28;70958;-38
2021/05/11 00:31:48;;;;;;;15.90;8.52;;;;;;;31.99;59.31;100802.94;5051810;27;65915;-38
2021/05/11 00:34:19;;;;;;;13.27;8.25;;;;;;;32.03;58.70;100806.81;5054099;28;69781;-39
2021/05/11 00:36:49;;;;;;;13.77;8.13;;;;;;;31.99;58.40;100808.34;5056077;28;66603;-39
2021/05/11 00:39:20;;;;;;;14.65;8.60;;;;;;;32.04;58.81;100813.91;5055061;28;70327;-38
2021/05/11 00:41:50;;;;;;;13.05;8.18;;;;;;;32.08;58.45;100816.16;5049663;28;65897;-39
2021/05/11 00:44:26;;;;;;;12.10;7.85;;;;;;;31.80;58.31;100769.53;5051677;28;69832;-38
2021/05/11 00:47:06;;;;;;;9.13;7.60;;;;;;;32.12;58.14;100822.78;5052513;28;66056;-38
2021/05/11 00:49:37;;;;;;;12.15;7.70;;;;;;;32.18;58.29;100839.00;5053827;28;70153;-38
2021/05/11 00:52:08;;;;;;;10.43;7.45;;;;;;;32.21;57.87;100829.56;5054463;28;66277;-38
2021/05/11 00:54:39;;;;;;;10.10;6.97;;;;;;;32.19;57.94;100824.34;5054408;27;69145;-38
2021/05/11 00:57:10;;;;;;;7.75;6.97;;;;;;;32.29;57.40;100842.81;5055463;28;66053;-38
2021/05/11 00:59:41;;;;;;;11.68;6.53;;;;;;;32.32;57.37;100833.34;5053266;28;70918;-37
2021/05/11 01:02:12;;;;;;;9.38;6.60;;;;;;;32.32;57.64;100842.34;5052744;28;65699;-38
2021/05/11 01:04:42;;;;;;;;;;;;;;;32.30;57.42;100841.75;5053656;28;69208;-38
2021/05/11 01:07:14;;;;;;;19.05;6.28;;;;;;;32.41;56.94;100851.81;5055248;28;66038;-38
2021/05/11 01:09:45;;;;;;;7.85;7.07;;;;;;;32.43;57.24;100846.97;5047535;28;70202;-38
2021/05/11 01:12:17;;;;;;;10.07;6.70;;;;;;;32.42;56.72;100836.34;5051679;28;66061;-39
2021/05/11 01:14:48;;;;;;;8.45;6.45;;;;;;;32.45;56.92;100839.41;5050908;28;70423;-39
2021/05/11 01:17:31;;;;;;;6.82;6.07;;;;;;;32.47;56.71;100856.34;5054308;28;65928;-38
2021/05/11 01:20:04;;;;;;;10.40;6.40;;;;;;;32.50;56.61;100855.03;5051127;28;70044;-38
2021/05/11 01:23:09;;;;;;;10.95;6.45;;;;;;;32.50;56.43;100852.31;5050428;28;65960;-38
2021/05/11 01:25:41;;;;;;;6.85;5.93;;;;;;;32.53;56.41;100845.59;5050432;28;70060;-37
2021/05/11 01:45:09;;;;;;;7.85;6.30;;;;;;;32.73;56.03;100851.53;5054970;28;65941;-39
2021/05/11 02:22:54;;;;;;;16.88;5.88;;;;;;;33.00;55.34;100867.44;5051221;28;65384;-38
2021/05/11 02:25:25;;;;;;;8.37;5.10;;;;;;;33.04;55.39;100857.75;5053320;28;69772;-38
2021/05/11 02:27:56;;;;;;;14.30;6.38;;;;;;;33.03;55.55;100850.66;5055073;28;66223;-38
2021/05/11 02:30:31;;;;;;;12.77;6.47;;;;;;;33.07;55.36;100857.28;5056440;28;70086;-38
2021/05/11 02:33:22;;;;;;;19.77;6.47;;;;;;;33.15;55.08;100865.06;5050842;28;66764;-39
2021/05/11 02:35:58;;;;;;;12.85;5.97;;;;;;;33.19;55.02;100866.28;5054743;28;70270;-38
2021/05/11 02:38:31;;;;;;;19.88;6.93;;;;;;;33.07;54.92;100836.38;5048791;28;65955;-38
2021/05/11 02:41:25;;;;;;;19.33;6.53;;;;;;;33.22;55.02;100854.91;5044850;28;69876;-39
2021/05/11 02:43:57;;;;;;;16.88;6.03;;;;;;;33.31;54.58;100853.50;5043085;28;65533;-38
2021/05/11 02:46:31;;;;;;;19.65;6.85;;;;;;;33.34;54.64;100853.00;5050491;28;70069;-38
2021/05/11 02:49:02;;;;;;;20.98;6.78;;;;;;;33.40;54.45;100845.78;5050368;28;65904;-38
2021/05/11 02:51:33;;;;;;;36.75;8.75;;;;;;;33.42;54.42;100840.13;5039783;28;70091;-38
2021/05/11 02:54:08;;;;;;;21.55;9.23;;;;;;;33.51;54.15;100835.97;5053946;28;66282;-38
2021/05/11 02:56:39;;;;;;;29.02;9.45;;;;;;;33.51;54.27;100831.34;5052461;28;70316;-37
2021/05/11 02:59:09;;;;;;;23.93;10.63;;;;;;;33.57;54.24;100837.75;5052269;28;67507;-39
2021/05/11 03:01:41;;;;;;;39.78;15.00;;;;;;;33.55;54.01;100834.47;5052724;28;69941;-39
2021/05/11 03:04:13;;;;;;;19.33;8.13;;;;;;;33.59;54.14;100832.91;5035261;28;66290;-37
2021/05/11 03:06:44;;;;;;;16.73;8.10;;;;;;;33.64;54.00;100835.75;5048194;28;69817;-39
2021/05/11 03:09:15;;;;;;;14.68;8.05;;;;;;;33.70;53.61;100826.63;5054173;28;65409;-38
2021/05/11 03:11:45;;;;;;;20.75;8.63;;;;;;;33.68;53.79;100826.03;5051528;28;69969;-38
2021/05/11 03:14:18;;;;;;;14.32;8.43;;;;;;;33.72;53.60;100832.66;5053808;27;65027;-39
2021/05/11 03:16:49;;;;;;;14.25;7.78;;;;;;;33.72;53.64;100831.81;5053466;28;70172;-37
2021/05/11 03:19:21;;;;;;;24.25;8.80;;;;;;;33.70;53.92;100815.72;5052096;27;66642;-38
2021/05/11 03:21:52;;;;;;;32.55;8.95;;;;;;;33.74;53.97;100814.19;5043626;28;69929;-38
2021/05/11 03:24:22;;;;;;;21.70;8.52;;;;;;;33.83;53.50;100813.81;5051567;28;65977;-39
2021/05/11 03:26:55;;;;;;;30.70;8.95;;;;;;;33.81;53.46;100812.16;5050223;28;70480;-38
2021/05/11 03:29:28;;;;;;;25.88;8.88;;;;;;;33.89;53.44;100818.28;5053162;28;65814;-40
2021/05/11 03:32:01;;;;;;;18.73;8.75;;;;;;;33.90;53.71;100803.59;5051361;28;69288;-37
2021/05/11 03:34:39;;;;;;;18.33;8.45;;;;;;;33.83;53.50;100792.88;5053340;28;65299;-38
2021/05/11 03:37:10;;;;;;;23.70;8.52;;;;;;;33.93;53.64;100798.50;5052521;28;71302;-39
2021/05/11 03:39:42;;;;;;;19.70;9.05;;;;;;;33.93;53.41;100803.94;5051184;28;66875;-38
2021/05/11 03:42:19;;;;;;;;;;;;;;;33.93;53.21;100800.38;5052595;28;69839;-38
2021/05/11 03:44:56;;;;;;;24.48;9.15;;;;;;;34.02;53.43;100796.22;5050133;28;66523;-40
2021/05/11 03:47:38;;;;;;;22.05;8.75;;;;;;;33.92;52.87;100782.41;5047967;28;70156;-39
2021/05/11 03:50:11;;;;;;;22.60;8.90;;;;;;;33.97;53.23;100785.25;5046814;28;66066;-38
2021/05/11 03:52:43;;;;;;;20.83;8.73;;;;;;;33.85;52.97;100766.25;5054023;28;69758;-38
2021/05/11 03:55:14;;;;;;;26.80;8.52;;;;;;;34.07;53.15;100780.00;5046061;28;65670;-38
2021/05/11 03:57:47;;;;;;;19.92;8.98;;;;;;;34.10;53.15;100773.25;5053237;28;70399;-38
2021/05/11 04:00:37;;;;;;;23.88;9.13;;;;;;;34.10;53.10;100756.91;5051623;28;66021;-37
2021/05/11 04:03:11;;;;;;;27.20;8.95;;;;;;;34.19;53.02;100772.59;5055464;28;70324;-37
2021/05/11 04:05:41;;;;;;;23.67;8.40;;;;;;;34.20;53.04;100765.25;5055299;28;66282;-38
2021/05/11 04:16:10;;;;;;;18.67;8.43;;;;;;;34.23;52.73;100751.16;5053616;28;70047;-38
2021/05/11 04:17:05;;;;;;;19.42;8.00;;;;;;;34.35;52.73;100759.25;5039327;28;66101;-38
2021/05/11 04:19:39;;;;;;;15.32;7.80;;;;;;;34.33;52.94;100754.06;5055216;28;69633;-38
2021/05/11 04:22:11;;;;;;;22.08;8.70;;;;;;;34.36;52.74;100755.47;5057420;28;65248;-38
2021/05/11 04:24:42;;;;;;;21.45;8.02;;;;;;;34.37;52.82;100751.66;5053271;28;70697;-38
2021/05/11 04:27:13;;;;;;;17.97;7.70;;;;;;;34.37;52.86;100740.75;5057526;28;66279;-38
2021/05/11 04:29:47;;;;;;;21.27;8.13;;;;;;;34.40;52.67;100740.25;5044893;28;70258;-37
2021/05/11 04:32:19;;;;;;;14.23;7.32;;;;;;;34.34;52.48;100719.47;5055430;28;66360;-38
2021/05/11 04:34:50;;;;;;;12.30;7.90;;;;;;;34.42;52.56;100733.50;5058726;28;70353;-38
2021/05/11 04:37:22;;;;;;;21.63;8.05;;;;;;;34.43;52.43;100735.13;5053689;28;65994;-37
2021/05/11 04:40:13;;;;;;;17.17;7.75;;;;;;;34.34;52.61;100720.31;5056794;28;69120;-38
2021/05/11 04:42:44;;;;;;;11.13;7.22;;;;;;;34.49;52.57;100733.31;5052719;28;65747;-38
2021/05/11 04:45:19;;;;;;;14.27;7.78;;;;;;;34.32;52.32;100688.94;5054501;28;70244;-37
2021/05/11 04:47:54;;;;;;;10.95;7.43;;;;;;;34.53;52.38;100723.59;5049480;28;65437;-38
2021/05/11 04:50:34;;;;;;;19.77;7.68;;;;;;;34.53;52.32;100711.88;5055960;28;70015;-38
2021/05/11 04:53:06;;;;;;;13.05;7.60;;;;;;;34.59;52.05;100710.91;5056692;28;65984;-38
2021/05/11 04:55:37;;;;;;;15.90;7.50;;;;;;;34.62;52.03;100704.94;5046079;28;71653;-38
2021/05/11 04:58:08;;;;;;;;;;;;;;;34.55;52.19;100702.38;5049203;28;66320;-38
2021/05/11 05:00:38;;;;;;;19.98;7.60;;;;;;;34.64;52.38;100690.00;5057311;28;69849;-39
2021/05/11 05:03:12;;;;;;;10.38;6.72;;;;;;;34.66;52.17;100685.16;5048272;28;65974;-38
2021/05/11 05:05:45;;;;;;;9.25;6.72;;;;;;;34.47;51.88;100637.44;5052328;28;69046;-38
2021/05/11 05:08:15;;;;;;;10.43;6.65;;;;;;;34.67;52.00;100654.09;5045189;28;66239;-38
2021/05/11 05:10:46;;;;;;;8.45;6.95;;;;;;;34.78;51.86;100665.13;5054113;28;70067;-39
2021/05/11 05:13:21;;;;;;;16.33;7.13;;;;;;;34.55;52.09;100617.94;5053462;28;65933;-37
2021/05/11 05:15:56;;;;;;;9.85;6.38;;;;;;;34.80;51.76;100657.50;5054232;28;68561;-39
2021/05/11 05:18:29;;;;;;;13.07;7.63;;;;;;;34.48;51.77;100595.50;5047881;28;66281;-38
2021/05/11 05:21:04;;;;;;;15.88;7.35;;;;;;;34.78;52.08;100646.06;5059593;28;69820;-39
2021/05/11 05:23:48;;;;;;;12.88;8.07;;;;;;;34.82;51.56;100639.84;5057570;28;65877;-38
2021/05/11 05:26:26;;;;;;;12.90;7.80;;;;;;;34.84;51.82;100629.50;5056822;28;70050;-39
2021/05/11 05:28:58;;;;;;;9.23;7.40;;;;;;;34.88;51.50;100632.53;5054848;28;66379;-38
2021/05/11 05:31:31;;;;;;;13.50;7.20;;;;;;;34.84;51.76;100623.25;5055447;28;70105;-38
2021/05/11 05:34:06;;;;;;;8.95;6.90;;;;;;;34.86;51.56;100616.47;5046337;28;65899;-38
2021/05/11 05:36:37;;;;;;;;;;;;;;;34.89;51.45;100617.88;5051063;28;70048;-38
2021/05/11 05:39:09;;;;;;;9.65;6.95;;;;;;;34.97;51.52;100609.25;5049431;28;66961;-37
2021/05/11 05:41:41;;;;;;;8.68;6.32;;;;;;;35.01;51.47;100610.38;5054247;28;70368;-38
2021/05/11 05:44:13;;;;;;;10.75;6.45;;;;;;;35.06;51.86;100613.19;5054202;28;66164;-38
2021/05/11 05:46:44;;;;;;;12.23;6.47;;;;;;;35.06;51.45;100602.28;5053382;28;70510;-39
2021/05/11 05:49:17;;;;;;;9.98;7.13;;;;;;;35.11;51.31;100602.34;5056423;28;66514;-38
2021/05/11 05:51:50;;;;;;;11.80;6.60;;;;;;;35.07;51.00;100582.09;5053809;28;69580;-39
2021/05/11 05:54:21;;;;;;;12.63;6.60;;;;;;;35.17;51.32;100581.41;5051544;28;66037;-38
2021/05/11 05:56:55;;;;;;;7.95;7.07;;;;;;;35.21;51.42;100582.53;5056074;28;69944;-37
2021/05/11 05:59:27;;;;;;;7.53;6.78;;;;;;;35.25;51.24;100567.31;5055860;28;65853;-38
2021/05/11 06:01:58;;;;;;;7.50;6.78;;;;;;;35.27;51.23;100580.66;5053381;28;69474;-38
2021/05/11 06:04:29;;;;;;;9.52;6.30;;;;;;;35.26;51.51;100558.03;5053520;28;66115;-37
2021/05/11 06:07:01;;;;;;;9.20;6.20;;;;;;;35.29;51.03;100567.63;5053163;28;69981;-38
2021/05/11 06:09:35;;;;;;;6.75;5.75;;;;;;;35.31;51.04;100546.38;5054878;28;65162;-38
2021/05/11 06:12:18;;;;;;;6.95;6.05;;;;;;;35.38;51.28;100541.50;5057020;28;70089;-38
2021/05/11 06:17:40;;;;;;;8.73;6.10;;;;;;;35.42;50.68;100534.47;5058173;28;69584;-38
2021/05/11 06:20:14;;;;;;;10.20;6.68;;;;;;;35.38;51.12;100535.22;5054964;28;65794;-38
2021/05/11 06:22:53;;;;;;;8.02;6.10;;;;;;;35.40;51.11;100536.63;5054683;28;69930;-38
2021/05/11 06:25:24;;;;;;;6.35;5.85;;;;;;;35.46;50.82;100530.13;5052687;28;65883;-39
2021/05/11 06:27:56;;;;;;;6.60;5.97;;;;;;;35.51;50.97;100538.34;5050583;28;69477;-38
2021/05/11 06:30:29;;;;;;;7.88;5.57;;;;;;;35.53;50.83;100530.75;5051976;28;66224;-38
2021/05/11 06:33:01;;;;;;;9.57;6.03;;;;;;;35.55;50.81;100534.03;5057385;28;71653;-39
2021/05/11 06:35:38;;;;;;;8.68;5.88;;;;;;;35.61;50.84;100521.28;5062019;28;65338;-38
2021/05/11 06:38:09;;;;;;;8.75;5.90;;;;;;;35.53;51.02;100514.38;5047278;28;69838;-38
2021/05/11 06:40:42;;;;;;;7.97;5.85;;;;;;;35.68;50.35;100515.59;5053181;28;64812;-37
2021/05/11 06:43:21;;;;;;;5.90;5.32;;;;;;;35.67;50.35;100501.13;5055532;28;69726;-38
2021/05/11 06:46:16;;;;;;;9.13;5.40;;;;;;;35.79;50.03;100507.22;5053295;28;66407;-38
2021/05/11 06:53:58;;;;;;;5.90;4.88;;;;;;;35.97;49.67;100481.41;5053593;28;68724;-37
2021/05/11 06:56:31;;;;;;;8.30;5.28;;;;;;;36.03;49.89;100491.25;5056985;28;66197;-38
2021/05/11 06:59:02;;;;;;;7.00;5.35;;;;;;;35.96;49.64;100468.81;5053557;28;70322;-37
2021/05/11 07:01:34;;;;;;;11.80;5.28;;;;;;;36.11;49.94;100480.94;5050438;28;64901;-38
2021/05/11 07:04:06;;;;;;;7.97;5.80;;;;;;;36.15;49.99;100482.06;5052413;28;70014;-38
2021/05/11 07:06:39;;;;;;;9.88;6.03;;;;;;;36.21;49.83;100476.34;5047344;28;66682;-38
2021/05/11 07:09:14;;;;;;;15.70;5.78;;;;;;;36.26;49.68;100467.38;5052673;28;69749;-37
2021/05/11 07:14:18;;;;;;;11.32;5.25;;;;;;;36.31;49.13;100453.72;5053887;28;68981;-37
2021/05/11 07:16:50;;;;;;;8.65;5.32;;;;;;;36.27;49.97;100444.41;5051918;28;65758;-38
2021/05/11 07:19:25;;;;;;;11.07;5.53;;;;;;;36.28;49.72;100437.88;5050306;28;69842;-38
2021/05/11 07:21:56;;;;;;;13.10;5.75;;;;;;;36.24;49.72;100421.19;5053334;28;66374;-37
2021/05/11 07:24:27;;;;;;;;;;;;;;;36.33;49.73;100446.09;5049060;28;70517;-38
2021/05/11 07:29:49;;;;;;;10.68;5.60;;;;;;;36.32;49.54;100438.97;5054895;27;70321;-38
2021/05/11 07:32:20;;;;;;;10.13;5.15;;;;;;;36.38;49.61;100426.97;5056505;28;65821;-38
2021/05/11 07:34:54;;;;;;;10.88;5.50;;;;;;;36.23;49.05;100394.16;5055201;28;70064;-38
2021/05/11 07:37:25;;;;;;;7.10;4.97;;;;;;;36.30;49.37;100430.22;5050538;28;66657;-37
2021/05/11 07:39:56;;;;;;;9.00;5.17;;;;;;;36.41;49.33;100448.31;5059427;28;70007;-39
2021/05/11 07:42:31;;;;;;;16.88;5.10;;;;;;;36.36;49.32;100434.63;5053695;28;66258;-38
2021/05/11 07:45:04;;;;;;;10.45;5.75;;;;;;;36.49;49.02;100437.94;5055543;28;70248;-37
2021/05/11 07:47:57;;;;;;;7.38;5.20;;;;;;;36.54;49.39;100438.81;5056367;28;65706;-38
2021/05/11 07:50:51;;;;;;;11.70;4.90;;;;;;;36.54;49.33;100435.25;5049067;28;69856;-37
2021/05/11 08:15:29;;;;;;;7.05;4.63;;;;;;;36.66;49.05;100389.34;5052440;28;66704;-37
2021/05/11 08:29:13;;;;;;;4.90;3.60;;;;;;;36.70;48.22;100370.53;5053540;28;69768;-37
2021/05/11 08:31:44;;;;;;;9.07;4.50;;;;;;;36.72;49.11;100371.91;5057323;28;66010;-38
2021/05/11 08:34:15;;;;;;;4.72;4.22;;;;;;;36.67;49.00;100358.22;5056937;28;69812;-38
2021/05/11 08:36:46;;;;;;;4.57;3.90;;;;;;;36.77;48.89;100369.16;5050164;28;66242;-39
2021/05/11 08:39:22;;;;;;;4.22;3.83;;;;;;;36.71;49.07;100372.97;5037670;28;69229;-39
2021/05/11 08:41:53;;;;;;;4.55;4.13;;;;;;;36.73;48.51;100365.34;5053175;28;65360;-39
2021/05/11 08:44:24;;;;;;;7.20;4.22;;;;;;;36.76;48.59;100366.69;5054117;28;69600;-37
2021/05/11 08:46:55;;;;;;;4.53;3.95;;;;;;;36.73;48.32;100368.06;5063249;28;65899;-38
2021/05/11 08:49:26;;;;;;;5.55;4.13;;;;;;;36.61;48.99;100356.56;5056422;28;69753;-37
2021/05/11 08:52:05;;;;;;;6.90;3.30;;;;;;;36.76;48.98;100366.69;5045247;28;65067;-38
2021/05/11 08:55:06;;;;;;;9.27;4.10;;;;;;;36.75;49.15;100368.63;5060411;28;70078;-38
2021/05/11 09:06:10;;;;;;;6.13;3.40;;;;;;;36.81;49.03;100402.22;5054989;28;70254;-40
2021/05/11 09:25:51;;;;;;;4.88;2.63;;;;;;;36.73;48.49;100387.19;5060360;28;66344;-38
2021/05/11 09:28:33;;;;;;;3.60;3.25;;;;;;;36.71;48.91;100394.84;5068716;27;70899;-38
2021/05/11 09:31:39;;;;;;;3.80;3.08;;;;;;;36.68;48.38;100388.00;5049080;28;65999;-39
2021/05/11 09:45:51;;;;;;;5.13;2.78;;;;;;;36.43;48.54;100368.81;5050983;28;70128;-38
2021/05/11 10:48:20;;;;;;;5.38;2.28;;;;;;;35.71;50.21;100367.72;5052703;28;68872;-40
2021/05/11 10:50:53;;;;;;;2.65;2.13;;;;;;;35.97;49.72;100426.81;5053930;28;65842;-38
2021/05/11 10:53:50;;;;;;;2.45;2.13;;;;;;;35.41;49.96;100363.75;5052046;28;70141;-38
2021/05/11 10:56:31;;;;;;;2.50;2.30;;;;;;;35.98;50.14;100438.53;5055177;28;65985;-37
2021/05/11 11:01:57;;;;;;;;;;;;;;;35.88;50.39;100446.69;5058978;28;66013;-37
2021/05/11 11:04:44;;;;;;;2.08;1.88;;;;;;;35.79;50.28;100410.88;5058688;27;69870;-38
2021/05/11 11:07:15;;;;;;;5.68;2.25;;;;;;;35.95;49.72;100450.00;5055773;28;66172;-40
2021/05/11 11:10:08;;;;;;;6.43;2.10;;;;;;;35.90;50.10;100452.69;5059117;27;71100;-39
2021/05/11 11:12:41;;;;;;;11.90;2.90;;;;;;;35.45;50.01;100374.94;5058726;28;66223;-41
2021/05/11 11:15:17;;;;;;;10.57;2.97;;;;;;;35.66;50.12;100412.19;5042597;28;69943;-39
2021/05/11 11:17:52;;;;;;;7.30;3.47;;;;;;;35.88;50.73;100455.69;5061352;28;66018;-38
2021/05/11 11:20:34;;;;;;;33.05;4.85;;;;;;;35.53;52.88;100459.81;5058524;27;69219;-37
2021/05/11 11:26:01;;;;;;;20.83;4.90;;;;;;;35.06;53.52;100438.72;5060568;28;68981;-38
2021/05/11 11:28:31;;;;;;;8.43;4.20;;;;;;;35.13;52.86;100472.06;5063400;28;66332;-38
2021/05/11 11:31:20;;;;;;;9.57;4.47;;;;;;;34.84;52.89;100473.38;5061905;27;69975;-37
2021/05/11 11:33:51;;;;;;;11.52;3.95;;;;;;;34.70;52.30;100473.78;5056610;28;64983;-39
2021/05/11 11:36:29;;;;;;;6.72;3.63;;;;;;;34.55;51.29;100479.03;5059286;28;69045;-40
2021/05/11 11:39:05;;;;;;;13.13;3.80;;;;;;;34.43;51.10;100481.88;5059457;28;65292;-40
2021/05/11 11:41:36;;;;;;;10.18;3.38;;;;;;;34.34;50.99;100483.41;5044071;28;70056;-40
2021/05/11 11:44:07;;;;;;;22.02;4.07;;;;;;;34.12;50.56;100480.69;5058175;28;65003;-40
2021/05/11 11:46:39;;;;;;;10.82;3.58;;;;;;;34.12;50.26;100488.84;5055950;28;69954;-39
2021/05/11 11:49:18;;;;;;;12.00;3.05;;;;;;;33.99;50.29;100508.22;5058859;28;65255;-40
2021/05/11 11:52:07;;;;;;;31.67;3.80;;;;;;;33.93;49.46;100510.03;5058618;28;71031;-39
2021/05/11 12:00:20;;;;;;;15.82;4.20;;;;;;;33.89;50.32;100521.69;5074785;27;67039;-40
2021/05/11 12:03:06;;;;;;;13.02;3.80;;;;;;;33.86;50.31;100520.28;5055348;28;70261;-39
2021/05/11 12:05:47;;;;;;;8.45;3.42;;;;;;;33.87;50.20;100524.66;5057388;28;67176;-39
2021/05/11 12:08:28;;;;;;;7.88;3.75;;;;;;;33.57;49.82;100489.63;5058645;28;70769;-37
2021/05/11 12:11:06;;;;;;;4.30;3.03;;;;;;;33.83;49.09;100539.03;5054783;28;66941;-39
2021/05/11 12:13:39;;;;;;;4.95;3.03;;;;;;;33.78;48.29;100521.53;5069039;27;70591;-39
2021/05/11 12:16:20;;;;;;;3.55;3.10;;;;;;;33.62;47.81;100516.91;5056179;28;65216;-38
2021/05/11 12:19:05;;;;;;;7.43;2.95;;;;;;;33.46;47.93;100528.59;5057723;28;69242;-39
2021/05/11 12:22:01;;;;;;;5.53;3.50;;;;;;;33.28;47.59;100544.06;5057941;28;66537;-39
2021/05/11 12:24:40;;;;;;;4.10;3.17;;;;;;;33.25;47.11;100544.56;5054544;28;70010;-40
2021/05/11 12:27:22;;;;;;;3.55;3.03;;;;;;;33.13;46.88;100549.25;5055881;28;66073;-40
2021/05/11 12:30:01;;;;;;;4.70;3.30;;;;;;;33.05;47.05;100549.63;5058387;28;70545;-40
2021/05/11 12:32:34;;;;;;;8.70;3.60;;;;;;;33.05;49.56;100553.16;5062599;28;65418;-40
2021/05/11 12:35:16;;;;;;;5.65;3.40;;;;;;;32.86;49.14;100519.06;5057937;28;69192;-39
2021/05/11 12:37:50;;;;;;;16.17;3.25;;;;;;;33.00;49.14;100565.84;5058726;28;67044;-39
2021/05/11 12:40:28;;;;;;;9.05;2.85;;;;;;;32.92;48.80;100567.81;5056436;28;71395;-38
2021/05/11 12:43:04;;;;;;;8.35;3.40;;;;;;;32.90;49.05;100580.00;5055013;28;66838;-38
2021/05/11 12:45:50;;;;;;;8.57;3.30;;;;;;;32.86;49.01;100601.41;5057212;28;69518;-39
2021/05/11 12:48:22;;;;;;;10.15;3.40;;;;;;;32.93;49.03;100602.09;5055197;28;66542;-37
2021/05/11 12:50:53;;;;;;;13.38;3.35;;;;;;;32.95;48.84;100604.56;5057445;28;70106;-38
2021/05/11 12:53:42;;;;;;;23.08;3.88;;;;;;;32.96;48.73;100605.38;5057301;28;66046;-39
2021/05/11 13:14:45;;;;;;;12.13;3.03;;;;;;;32.94;47.87;100658.06;5054163;28;70405;-41
2021/05/11 13:17:08;;;;;;;10.02;3.03;;;;;;;32.68;47.59;100625.97;5050548;28;65561;-42
2021/05/11 13:27:53;;;;;;;7.25;2.85;;;;;;;32.67;47.02;100678.66;5056370;28;65686;-41
2021/05/11 13:31:02;;;;;;;18.73;2.65;;;;;;;32.58;46.99;100674.66;5055938;28;70035;-41
2021/05/11 13:33:55;;;;;;;17.88;2.80;;;;;;;32.54;46.52;100673.47;5056443;28;65966;-42
2021/05/11 13:36:28;;;;;;;13.07;2.42;;;;;;;32.49;46.37;100677.72;5051628;28;69189;-42
2021/05/11 13:39:02;;;;;;;13.57;2.42;;;;;;;32.48;45.86;100681.53;5057980;28;66192;-40
2021/05/11 13:41:34;;;;;;;9.32;2.15;;;;;;;32.43;45.94;100681.38;5056033;28;70091;-40
2021/05/11 13:44:08;;;;;;;11.02;2.40;;;;;;;32.36;45.43;100672.50;5057862;28;66626;-43
2021/05/11 13:46:40;;;;;;;9.02;2.00;;;;;;;32.38;45.91;100680.41;5054228;28;69860;-43
2021/05/11 13:49:15;;;;;;;13.20;3.42;;;;;;;32.34;47.48;100688.19;5053942;28;66415;-40
2021/05/11 13:51:47;;;;;;;22.75;2.78;;;;;;;32.39;47.45;100695.63;5056319;28;70066;-40
2021/05/11 13:54:19;;;;;;;19.80;2.80;;;;;;;32.38;47.48;100686.66;5047745;28;66151;-43
2021/05/11 13:57:14;;;;;;;8.30;2.70;;;;;;;32.40;47.19;100691.84;5065902;27;70617;-44
2021/05/11 14:02:50;;;;;;;12.85;2.75;;;;;;;32.41;47.48;100707.91;5057834;28;69214;-44
2021/05/11 14:05:22;;;;;;;8.77;2.83;;;;;;;32.45;47.65;100721.84;5059074;28;65861;-44
2021/05/11 14:07:53;;;;;;;;;;;;;;;32.33;47.54;100721.00;5057831;28;69894;-44
2021/05/11 14:10:26;;;;;;;9.07;2.95;;;;;;;32.25;47.45;100697.75;5059925;28;67336;-43
2021/05/11 14:12:57;;;;;;;5.97;2.47;;;;;;;32.38;47.43;100724.69;5053630;28;69886;-43
2021/05/11 14:15:29;;;;;;;9.25;3.00;;;;;;;32.32;47.61;100732.91;5057217;28;64888;-45
2021/05/11 14:18:00;;;;;;;8.20;3.22;;;;;;;32.33;48.00;100738.13;5057262;28;69109;-44
2021/05/11 14:20:32;;;;;;;12.17;3.10;;;;;;;32.32;47.68;100752.75;5057709;28;66586;-45
2021/05/11 14:23:04;;;;;;;8.93;2.83;;;;;;;32.25;47.21;100758.28;5052317;28;69179;-44
2021/05/11 14:25:36;;;;;;;17.58;2.80;;;;;;;32.26;47.04;100753.66;5056347;28;64796;-44
2021/05/11 14:28:09;;;;;;;13.65;3.03;;;;;;;32.16;47.33;100769.72;5052915;28;69655;-45
2021/05/11 14:30:41;;;;;;;3.22;2.15;;;;;;;32.13;47.09;100775.63;5055091;28;65956;-44
2021/05/11 14:33:13;;;;;;;10.68;3.30;;;;;;;32.15;46.98;100789.75;5033723;28;69331;-41
2021/05/11 14:35:44;;;;;;;17.60;2.65;;;;;;;32.08;46.17;100806.13;5056536;28;64417;-43
2021/05/11 14:38:16;;;;;;;4.10;2.22;;;;;;;32.02;46.69;100799.75;5050849;28;69125;-41
2021/05/11 14:40:48;;;;;;;2.15;1.88;;;;;;;31.98;46.52;100806.72;5055634;28;65663;-41
2021/05/11 14:43:19;;;;;;;8.23;2.50;;;;;;;31.97;46.12;100798.78;5055565;28;68791;-42
2021/05/11 14:45:50;;;;;;;3.05;1.98;;;;;;;31.95;45.89;100807.13;5058892;28;65959;-41
2021/05/11 14:48:22;;;;;;;2.70;1.63;;;;;;;31.95;45.64;100807.13;5055537;28;69496;-40
2021/05/11 14:50:55;;;;;;;3.33;2.08;;;;;;;31.79;45.45;100781.47;5061500;27;66193;-42
2021/05/11 14:53:27;;;;;;;2.22;1.60;;;;;;;31.90;45.75;100798.84;5053681;28;69831;-43
2021/05/11 14:56:01;;;;;;;5.10;2.42;;;;;;;31.82;45.52;100780.19;5059324;28;66406;-41
2021/05/11 14:58:39;;;;;;;2.53;2.17;;;;;;;31.79;45.15;100767.09;5052730;28;43734;-40
2021/05/11 15:01:11;;;;;;;3.90;2.17;;;;;;;31.89;45.39;100786.31;5055807;27;66025;-41
2021/05/11 15:03:43;;;;;;;2.63;2.42;;;;;;;31.91;45.16;100783.41;5055295;28;69888;-41
2021/05/11 15:06:20;;;;;;;3.78;2.75;;;;;;;31.91;44.81;100795.09;5055092;28;66233;-42
2021/05/11 15:08:51;;;;;;;6.77;2.40;;;;;;;31.82;44.95;100807.31;5059621;28;69837;-42
2021/05/11 15:11:23;;;;;;;2.45;2.25;;;;;;;31.76;45.31;100813.63;5056871;28;66020;-41
2021/05/11 15:13:57;;;;;;;2.87;2.40;;;;;;;31.76;45.18;100816.34;5053102;28;69387;-42
2021/05/11 15:16:31;;;;;;;2.65;2.45;;;;;;;31.67;45.01;100810.41;5054199;28;66060;-42
2021/05/11 15:19:02;;;;;;;4.07;2.33;;;;;;;31.74;44.72;100810.34;5054233;28;69656;-41
2021/05/11 15:21:34;;;;;;;2.47;2.13;;;;;;;31.71;44.45;100816.22;5051426;28;66415;-42
2021/05/11 15:24:09;;;;;;;2.45;2.25;;;;;;;31.68;44.44;100822.91;5054314;28;69942;-40
2021/05/11 15:26:41;;;;;;;2.28;2.08;;;;;;;31.69;44.29;100818.31;5056525;28;65694;-43
2021/05/11 15:29:12;;;;;;;2.30;1.70;;;;;;;31.72;44.12;100807.00;5051986;28;69494;-39
2021/05/11 15:31:45;;;;;;;2.30;1.73;;;;;;;31.87;44.00;100802.00;5054501;28;67618;-41
2021/05/11 15:34:16;;;;;;;1.75;1.65;;;;;;;32.04;43.22;100819.34;5057281;28;70663;-42
2021/05/11 15:37:01;;;;;;;3.28;1.92;;;;;;;32.13;43.28;100805.47;5053234;28;65898;-42
2021/05/11 15:39:32;;;;;;;3.47;1.83;;;;;;;32.17;43.01;100809.34;5055486;28;70378;-42
2021/05/11 15:42:03;;;;;;;2.35;1.55;;;;;;;32.12;42.91;100779.34;5055135;28;66307;-40
2021/05/11 15:44:34;;;;;;;5.25;1.70;;;;;;;32.19;42.10;100796.38;5052904;28;67711;-40
2021/05/11 15:47:05;;;;;;;1.90;1.73;;;;;;;32.16;42.09;100784.09;5055567;27;66426;-41
2021/05/11 15:49:35;;;;;;;2.42;1.67;;;;;;;32.21;42.37;100795.09;5058795;28;70030;-40
2021/05/11 15:52:06;;;;;;;3.15;1.95;;;;;;;32.22;42.02;100790.50;5057537;28;65339;-40
2021/05/11 15:54:37;;;;;;;2.10;1.52;;;;;;;32.19;42.07;100786.34;5057229;28;69720;-41
2021/05/11 15:57:08;;;;;;;3.15;1.73;;;;;;;32.19;42.06;100785.53;5056847;28;66276;-42
2021/05/11 15:59:39;;;;;;;4.28;1.48;;;;;;;32.20;41.66;100784.47;5059528;28;69433;-40